Opportunity radar
4,186,134 patents indexed · 165,974,948 citations · issued 2005-01-04 → 2026-05-05
Showing50 of 48,503
Pharma (A61K)Therapy methods (A61P)Med devices (A61M)Agriculture (A01)Hand tools (B25)Consumer (A47)Energy (H01M)AI / ML (G06N)
| Patent # | Title | Assets | Issued | Expires | Fwd cites | Score |
|---|---|---|---|---|---|---|
| 12616113 | Canola hybrid 17GM0330N | 🖼🧊📄§ | 2026-05-05 | 2043-11-01 | 0 | 31 |
| 12616114 | Rice cultivar designated ‘PVL03’ | 🖼🧊📄§ | 2026-05-05 | 2041-09-24 | 0 | 31 |
| 12616115 | Wheat variety 6PTTB30B | 🖼🧊📄§ | 2026-05-05 | 2043-12-28 | 0 | 31 |
| 12616117 | Plants and seeds of hybrid corn variety CH010549 | 🖼🧊📄§ | 2026-05-05 | 2043-12-20 | 0 | 31 |
| 12616119 | Plants and seeds of corn variety CV993144 | 🖼🧊📄§ | 2026-05-05 | 2043-12-22 | 0 | 31 |
| 12616121 | Plants and seeds of corn variety CV639533 | 🖼🧊📄§ | 2026-05-05 | 2043-12-23 | 0 | 31 |
| 12616123 | Plants and seeds of hybrid corn variety CH010571 | 🖼🧊📄§ | 2026-05-05 | 2043-12-26 | 0 | 31 |
| 12616125 | Plants and seeds of hybrid corn variety CH010534 | 🖼🧊📄§ | 2026-05-05 | 2043-12-27 | 0 | 31 |
| 12616129 | Plants and seeds of hybrid corn variety CH010516 | 🖼🧊📄§ | 2026-05-05 | 2043-12-27 | 0 | 31 |
| 12616132 | Plants and seeds of hybrid corn variety CH010438 | 🖼🧊📄§ | 2026-05-05 | 2043-12-27 | 0 | 31 |
| 12616133 | Plants and seeds of hybrid corn variety CH010493 | 🖼🧊📄§ | 2026-05-05 | 2043-12-27 | 0 | 31 |
| 12616134 | Plants and seeds of hybrid corn variety CH010560 | 🖼🧊📄§ | 2026-05-05 | 2043-12-27 | 0 | 31 |
| 12616135 | Variety corn line TPFX7814 | 🖼🧊📄§ | 2026-05-05 | 2043-10-30 | 0 | 31 |
| 12616137 | Plants and seeds of hybrid corn variety CH010492 | 🖼🧊📄§ | 2026-05-05 | 2043-12-10 | 0 | 31 |
| 12616139 | Plants and seeds of hybrid corn variety CH010512 | 🖼🧊📄§ | 2026-05-05 | 2043-12-11 | 0 | 31 |
| 12616140 | Plants and seeds of hybrid corn variety CH010480 | 🖼🧊📄§ | 2026-05-05 | 2043-12-11 | 0 | 31 |
| 12616144 | Soybean variety 01098221 | 🖼🧊📄§ | 2026-05-05 | 2042-11-23 | 0 | 31 |
| 12619244 | System and method for autonomous surveillance of an agricultural machine | 🖼🧊📄§ | 2026-05-05 | 2043-02-03 | 0 | 31 |
| 12617234 | Axle structure and lawn mowing robot | 🖼🧊📄§ | 2026-05-05 | 2045-12-10 | 0 | 31 |
| 12617068 | Method for operating a hand-guided working apparatus, and hand-guided working apparatus | 🖼🧊📄§ | 2026-05-05 | 2041-07-20 | 0 | 31 |
| 12617329 | Cover systems and methods with perforated tunnels | 🖼🧊📄§ | 2026-05-05 | 2043-01-27 | 0 | 31 |
| 12616086 | Brush attachment system for a turfgrass mower | 🖼🧊📄§ | 2026-05-05 | 2043-08-08 | 0 | 31 |
| 12616088 | Navigating a robotic mower along a guide wire | 🖼🧊📄§ | 2026-05-05 | 2042-12-05 | 0 | 31 |
| 12616085 | Brush attachment system for a turfgrass mower | 🖼🧊📄§ | 2026-05-05 | 2042-12-09 | 0 | 31 |
| 12616090 | Suspension system for electric power equipment | 🖼🧊📄§ | 2026-05-05 | 2042-10-14 | 0 | 31 |
| 12616091 | Method and apparatus for height adjustable handles for mower | 🖼🧊📄§ | 2026-05-05 | 2043-10-09 | 0 | 31 |
| 12616171 | Animal grooming tool and methods | 🖼🧊📄§ | 2026-05-05 | 2044-10-17 | 0 | 31 |
| 12616097 | Robotic harvesting system for vertical plant cultivation | 🖼🧊📄§ | 2026-05-05 | 2041-09-21 | 0 | 31 |
| 12616095 | Primary extractor of a sugarcane harvester including variable angle guide vanes | 🖼🧊📄§ | 2026-05-05 | 2043-06-21 | 0 | 31 |
| 12616108 | Plants and seeds of hybrid corn variety CH010475 | 🖼🧊📄§ | 2026-05-05 | 2043-12-26 | 0 | 31 |
| 12616109 | Spinach plants resistant to Peronospora farinosa and Stemphylium vesicarium | 🖼🧊📄§ | 2026-05-05 | 2040-11-24 | 0 | 31 |
| 12616111 | Canola hybrid 18GM0788N | 🖼🧊📄§ | 2026-05-05 | 2042-09-15 | 0 | 31 |
| 12616147 | Soybean cultivar 22060716 | 🖼🧊📄§ | 2026-05-05 | 2043-12-21 | 0 | 31 |
| 12616148 | Soybean cultivar 22420517 | 🖼🧊📄§ | 2026-05-05 | 2044-02-08 | 0 | 31 |
| 12616152 | Soybean variety 01098336 | 🖼🧊📄§ | 2026-05-05 | 2043-11-17 | 0 | 31 |
| 12616157 | Milking system and methods with pre- and post-dip in the teat liner | 🖼🧊📄§ | 2026-05-05 | 2042-08-30 | 0 | 31 |
| 12616159 | Milking system | 🖼🧊📄§ | 2026-05-05 | 2042-10-12 | 0 | 31 |
| 12616158 | Quality sensor, computer-implemented method of predicting inhomogeneities in milk extracted from an animal, computer program and non-volatile data carrier | 🖼🧊📄§ | 2026-05-05 | 2042-01-14 | 0 | 31 |
| 12616161 | Livestock restraining devices, systems for livestock management, and uses thereof | 🖼🧊📄§ | 2026-05-05 | 2041-06-15 | 0 | 31 |
| 12616162 | Bedding material separator | 🖼🧊📄§ | 2026-05-05 | 2045-04-09 | 0 | 31 |
| 12616165 | Pet housing crate | 🖼🧊📄§ | 2026-05-05 | 2045-04-28 | 0 | 31 |
| 12616169 | Livestock ear tag system | 🖼🧊📄§ | 2026-05-05 | 2043-12-21 | 0 | 31 |
| 12616166 | Test apparatus for dust-exposing breath of animals and test method thereof | 🖼🧊📄§ | 2026-05-05 | 2043-12-06 | 0 | 31 |
| 12616175 | Aquarium system having improved flow controller and methods of use | 🖼🧊📄§ | 2026-05-05 | 2044-08-09 | 0 | 31 |
| 12616176 | Fish tank filter | 🖼🧊📄§ | 2026-05-05 | 2042-08-20 | 0 | 31 |
| 12616177 | On demand-delayed buoy release | 🖼🧊📄§ | 2026-05-05 | 2044-08-01 | 0 | 31 |
| 12616180 | Fishing rod handle member and fishing rod | 🖼🧊📄§ | 2026-05-05 | 2042-10-14 | 0 | 31 |
| 12616181 | Collapsible umbrella fishing rig apparatus and method of use | 🖼🧊📄§ | 2026-05-05 | 2045-07-24 | 0 | 31 |
| 12616190 | System and method for ventilating an organ | 🖼🧊📄§ | 2026-05-05 | 2042-08-08 | 0 | 31 |
| 12616183 | Video fishing system with electrically-conductive fishing line | 🖼🧊📄§ | 2026-05-05 | 2044-05-19 | 0 | 31 |